Time;durP1;ratioP1;P1;durP2;ratioP2;P2;SDS_P1;SDS_P2;PMS_P1;PMS_P2;Temp;Humidity;BMP_temperature;BMP_pressure;BME280_temperature;BME280_humidity;BME280_pressure;Samples;Min_cycle;Max_cycle;Signal;HPM_P1;HPM_P2
2022/03/29 00:00:57;;;;;;;17.10;9.15;;;;;;;12.77;38.33;99560.44;7846925;31;37539;-70
2022/03/29 00:05:13;;;;;;;15.38;9.68;;;;;;;12.72;38.56;99566.75;7847195;31;40167;-70
2022/03/29 00:09:29;;;;;;;20.02;10.27;;;;;;;12.63;38.95;99554.03;7847002;31;40769;-70
2022/03/29 00:13:45;;;;;;;16.73;9.93;;;;;;;12.62;38.95;99555.12;7846965;31;37939;-70
2022/03/29 00:18:02;;;;;;;18.12;9.82;;;;;;;12.65;38.80;99551.81;7846991;31;37702;-71
2022/03/29 00:22:18;;;;;;;17.75;9.40;;;;;;;12.48;38.95;99544.88;7847025;31;39002;-70
2022/03/29 00:26:34;;;;;;;17.08;9.00;;;;;;;12.36;39.50;99542.53;7846630;31;39660;-70
2022/03/29 00:30:50;;;;;;;14.45;8.95;;;;;;;12.19;40.22;99532.09;7846323;31;38498;-70
2022/03/29 00:35:09;;;;;;;18.37;9.30;;;;;;;11.67;41.82;99536.31;7846659;31;37567;-70
2022/03/29 00:39:25;;;;;;;15.27;9.40;;;;;;;11.68;41.36;99537.97;7846697;31;39245;-70
2022/03/29 00:43:41;;;;;;;15.32;9.38;;;;;;;11.73;41.07;99548.00;7846499;31;40677;-70
2022/03/29 00:47:57;;;;;;;18.70;10.02;;;;;;;11.81;40.74;99531.03;7846346;31;38539;-70
2022/03/29 00:52:14;;;;;;;18.60;10.52;;;;;;;11.73;41.61;99526.16;7846140;31;37942;-70
2022/03/29 00:56:30;;;;;;;21.52;10.00;;;;;;;11.87;41.36;99518.97;7845007;31;39955;-70
2022/03/29 01:00:47;;;;;;;18.37;10.85;;;;;;;11.91;40.95;99513.78;7843017;31;39815;-70
2022/03/29 01:05:04;;;;;;;20.48;10.70;;;;;;;11.68;42.27;99509.84;7845836;31;38682;-71
2022/03/29 01:09:20;;;;;;;17.83;10.10;;;;;;;11.89;42.06;99502.28;7845857;31;37959;-70
2022/03/29 01:13:36;;;;;;;19.27;10.55;;;;;;;11.91;41.89;99487.25;7845795;31;39331;-70
2022/03/29 01:17:53;;;;;;;21.33;11.50;;;;;;;11.49;44.37;99485.97;7845711;31;40158;-70
2022/03/29 01:22:10;;;;;;;19.75;11.18;;;;;;;11.66;43.11;99482.84;7844857;31;38101;-69
2022/03/29 01:26:27;;;;;;;18.48;10.45;;;;;;;11.44;44.74;99477.81;7845382;31;37317;-70
2022/03/29 01:30:43;;;;;;;18.52;10.30;;;;;;;11.41;43.44;99471.00;7843584;31;39335;-70
2022/03/29 01:34:59;;;;;;;18.62;11.07;;;;;;;11.42;43.32;99466.38;7843978;31;39902;-70
2022/03/29 01:39:16;;;;;;;16.45;9.88;;;;;;;11.17;45.16;99470.09;7845137;31;38050;-70
2022/03/29 01:43:33;;;;;;;22.35;10.88;;;;;;;11.19;44.21;99457.00;7845092;31;37089;-70
2022/03/29 01:47:49;;;;;;;22.50;10.48;;;;;;;10.95;45.36;99454.97;7844839;31;39230;-70
2022/03/29 01:52:05;;;;;;;18.08;10.50;;;;;;;11.01;44.71;99453.84;7844571;31;40675;-70
2022/03/29 01:56:22;;;;;;;18.50;10.55;;;;;;;10.95;45.14;99444.06;7844614;31;37887;-70
2022/03/29 02:00:41;;;;;;;16.85;10.55;;;;;;;10.92;44.86;99439.19;7844465;31;37162;-70
2022/03/29 02:04:58;;;;;;;17.70;11.12;;;;;;;10.86;46.42;99441.09;7844218;31;39359;-69
2022/03/29 02:09:14;;;;;;;19.75;11.50;;;;;;;10.68;46.91;99445.31;7844263;31;41301;-69
2022/03/29 02:13:30;;;;;;;21.48;10.90;;;;;;;10.87;45.73;99431.84;7845160;31;38093;-70
2022/03/29 02:17:48;;;;;;;22.62;11.43;;;;;;;10.66;46.21;99433.06;7848277;31;37270;-70
2022/03/29 02:22:05;;;;;;;19.12;11.23;;;;;;;10.72;46.01;99423.75;7848484;31;38248;-70
2022/03/29 02:26:21;;;;;;;22.83;12.43;;;;;;;10.75;46.22;99427.84;7848298;31;40798;-70
2022/03/29 02:30:37;;;;;;;21.12;11.10;;;;;;;10.73;45.86;99421.81;7847937;31;37963;-70
2022/03/29 02:34:53;;;;;;;20.80;11.90;;;;;;;10.52;46.73;99420.03;7848315;31;37026;-70
2022/03/29 02:39:09;;;;;;;23.08;11.18;;;;;;;10.78;45.66;99411.72;7847986;31;39176;-70
2022/03/29 02:43:28;;;;;;;21.25;11.40;;;;;;;10.63;46.12;99411.81;7848081;31;39865;-70
2022/03/29 02:47:46;;;;;;;26.23;11.85;;;;;;;10.50;46.14;99411.34;7847924;31;37596;-69
2022/03/29 02:52:03;;;;;;;23.75;12.02;;;;;;;10.41;46.10;99413.00;7847531;31;37825;-70
2022/03/29 02:56:19;;;;;;;22.55;11.35;;;;;;;10.35;46.70;99408.69;7847995;31;40166;-70
2022/03/29 03:00:35;;;;;;;22.08;12.23;;;;;;;10.45;46.18;99408.63;7847703;31;39863;-70
2022/03/29 03:04:51;;;;;;;18.65;11.32;;;;;;;10.43;45.75;99405.34;7846525;31;37888;-70
2022/03/29 03:09:08;;;;;;;22.80;12.05;;;;;;;10.34;46.72;99409.75;7847688;31;37790;-69
2022/03/29 03:13:24;;;;;;;23.02;13.10;;;;;;;10.48;45.87;99410.78;7847410;31;39154;-70
2022/03/29 03:17:40;;;;;;;19.37;12.68;;;;;;;10.35;45.90;99403.22;7847802;31;40770;-69
2022/03/29 03:21:56;;;;;;;26.37;12.88;;;;;;;10.45;45.81;99400.47;7847611;31;38045;-70
2022/03/29 03:26:13;;;;;;;21.73;12.48;;;;;;;10.34;45.89;99407.84;7847472;31;37212;-70
2022/03/29 03:30:29;;;;;;;20.15;11.30;;;;;;;10.34;46.27;99407.84;7847388;31;40005;-70
2022/03/29 03:34:45;;;;;;;24.70;12.15;;;;;;;10.29;46.05;99396.94;7847499;31;39919;-70
2022/03/29 03:39:01;;;;;;;19.35;11.57;;;;;;;10.33;45.54;99394.50;7847373;31;38773;-70
2022/03/29 03:43:17;;;;;;;21.62;12.07;;;;;;;10.34;46.12;99398.87;7847393;31;37136;-70
2022/03/29 03:47:34;;;;;;;16.75;9.90;;;;;;;10.49;45.71;99396.06;7847285;31;39154;-70
2022/03/29 03:51:50;;;;;;;26.20;12.27;;;;;;;10.73;53.53;99389.94;7847049;31;41347;-69
2022/03/29 03:56:07;;;;;;;23.50;12.68;;;;;;;10.61;46.67;99389.47;7847384;31;38415;-71
2022/03/29 04:00:24;;;;;;;21.05;11.88;;;;;;;10.51;45.62;99387.62;7846892;31;37812;-71
2022/03/29 04:04:40;;;;;;;25.05;12.30;;;;;;;10.39;46.03;99389.88;7847330;31;39243;-70
2022/03/29 04:08:56;;;;;;;22.80;12.15;;;;;;;10.46;45.34;99377.53;7845363;31;39734;-70
2022/03/29 04:13:12;;;;;;;22.17;12.70;;;;;;;10.41;45.80;99377.56;7845739;31;37738;-70
2022/03/29 04:17:28;;;;;;;25.67;12.95;;;;;;;10.19;46.36;99372.47;7846933;31;37559;-70
2022/03/29 04:21:44;;;;;;;25.10;11.55;;;;;;;10.27;45.87;99376.53;7846891;31;38896;-70
2022/03/29 04:26:01;;;;;;;22.25;12.32;;;;;;;10.10;46.70;99374.97;7846852;31;40110;-69
2022/03/29 04:30:17;;;;;;;20.33;10.95;;;;;;;10.05;46.65;99372.25;7846394;31;37866;-69
2022/03/29 04:34:34;;;;;;;26.23;12.05;;;;;;;9.95;46.87;99372.28;7846679;31;37824;-70
2022/03/29 04:38:50;;;;;;;23.87;11.73;;;;;;;10.03;46.55;99371.72;7845909;31;40303;-70
2022/03/29 04:43:06;;;;;;;21.58;10.80;;;;;;;9.97;47.61;99372.84;7846475;31;39622;-70
2022/03/29 04:47:22;;;;;;;20.75;10.55;;;;;;;9.90;46.69;99366.88;7846279;31;38434;-70
2022/03/29 04:51:39;;;;;;;20.65;11.82;;;;;;;10.00;47.27;99368.75;7846104;31;36818;-70
2022/03/29 04:55:56;;;;;;;21.05;11.35;;;;;;;9.89;46.71;99352.44;7846188;31;39335;-70
2022/03/29 05:00:13;;;;;;;21.80;10.95;;;;;;;9.92;46.57;99356.53;7845946;31;40020;-70
2022/03/29 05:04:29;;;;;;;26.62;11.57;;;;;;;9.99;46.37;99348.88;7845973;31;38113;-69
2022/03/29 05:08:46;;;;;;;21.25;9.93;;;;;;;10.01;47.65;99351.31;7845641;31;37881;-70
2022/03/29 05:13:02;;;;;;;21.50;11.32;;;;;;;10.06;46.63;99337.69;7845857;31;40007;-69
2022/03/29 05:17:18;;;;;;;17.80;10.48;;;;;;;10.09;47.53;99348.00;7845648;31;39592;-70
2022/03/29 05:21:34;;;;;;;20.80;11.52;;;;;;;10.11;46.73;99343.91;7845580;31;38427;-70
2022/03/29 05:25:50;;;;;;;19.37;11.85;;;;;;;10.26;46.15;99339.47;7845562;31;36756;-70
2022/03/29 05:30:07;;;;;;;25.80;13.05;;;;;;;10.28;47.91;99340.84;7845123;31;38846;-70
2022/03/29 05:34:24;;;;;;;28.50;12.48;;;;;;;10.32;48.37;99349.28;7845233;31;39907;-70
2022/03/29 05:38:41;;;;;;;22.83;13.23;;;;;;;10.21;47.70;99332.16;7845050;31;38234;-69
2022/03/29 05:42:57;;;;;;;28.20;15.00;;;;;;;10.28;47.73;99338.13;7845110;31;37174;-70
2022/03/29 05:51:49;;;;;;;43.58;13.52;;;;;;;10.43;47.85;99337.22;7848441;31;40819;-70
2022/03/29 05:56:05;;;;;;;31.23;13.90;;;;;;;10.76;47.39;99348.44;7848372;31;38024;-70
2022/03/29 06:00:27;;;;;;;34.15;20.75;;;;;;;10.84;46.88;99334.22;7848397;31;37189;-70
2022/03/29 06:04:43;;;;;;;33.97;16.67;;;;;;;11.10;46.63;99331.28;7848623;31;39169;-70
2022/03/29 06:09:00;;;;;;;53.83;15.68;;;;;;;11.39;45.92;99327.75;7848414;31;39966;-71
2022/03/29 06:13:17;;;;;;;31.08;12.60;;;;;;;11.44;46.60;99327.69;7848478;31;37945;-70
2022/03/29 06:17:33;;;;;;;25.17;11.40;;;;;;;11.65;45.83;99329.09;7848470;31;37097;-70
2022/03/29 06:21:49;;;;;;;39.45;12.20;;;;;;;11.79;45.79;99328.41;7848463;31;40143;-69
2022/03/29 06:26:05;;;;;;;38.85;12.82;;;;;;;11.99;45.67;99330.94;7847440;31;39858;-69
2022/03/29 06:30:22;;;;;;;35.10;12.55;;;;;;;12.33;44.93;99315.44;7847812;31;38709;-69
2022/03/29 06:34:38;;;;;;;20.45;12.07;;;;;;;12.49;44.69;99311.41;7848159;31;37158;-70
2022/03/29 06:38:54;;;;;;;24.73;10.68;;;;;;;12.56;44.13;99321.97;7847762;31;40017;-70
2022/03/29 06:43:10;;;;;;;25.20;10.85;;;;;;;12.83;43.00;99318.53;7836046;31;40696;-69
2022/03/29 06:47:26;;;;;;;16.80;10.10;;;;;;;12.89;43.01;99319.25;7848097;31;37765;-70
2022/03/29 06:51:44;;;;;;;23.73;11.40;;;;;;;13.19;42.07;99312.44;7848088;31;35464;-70
2022/03/29 06:56:00;;;;;;;22.10;9.80;;;;;;;13.51;41.98;99311.62;7848010;31;38941;-69
2022/03/29 07:00:16;;;;;;;21.25;10.27;;;;;;;14.16;42.48;99301.56;7847275;31;39777;-70
2022/03/29 07:04:32;;;;;;;16.27;8.90;;;;;;;14.14;40.81;99303.78;7847763;31;37985;-76
2022/03/29 07:13:46;;;;;;;25.10;10.27;;;;;;;15.06;38.78;99305.53;7844837;31;39435;-71
2022/03/29 07:18:03;;;;;;;28.45;11.88;;;;;;;15.62;37.73;99304.03;7847300;31;40534;-71
2022/03/29 07:22:19;;;;;;;20.95;11.35;;;;;;;15.54;36.83;99293.84;7847238;31;38134;-70
2022/03/29 07:26:36;;;;;;;25.65;11.57;;;;;;;15.84;36.34;99297.66;7827952;31;36990;-71
2022/03/29 07:30:52;;;;;;;20.83;12.37;;;;;;;16.09;35.23;99292.53;7846796;31;39378;-70
2022/03/29 07:35:08;;;;;;;33.67;12.27;;;;;;;16.36;34.39;99288.69;7846777;31;41917;-70
2022/03/29 07:39:24;;;;;;;19.48;10.35;;;;;;;16.72;32.89;99287.56;7846285;31;37661;-77
2022/03/29 07:43:40;;;;;;;22.92;12.52;;;;;;;16.67;33.46;99296.00;7846981;31;36819;-86
2022/03/29 07:47:57;;;;;;;25.70;11.98;;;;;;;16.51;33.57;99293.72;7822817;31;39341;-69
2022/03/29 07:52:37;;;;;;;26.73;13.65;;;;;;;17.27;31.60;99291.56;7845720;31;40148;-70
2022/03/29 07:56:54;;;;;;;25.90;12.13;;;;;;;17.11;29.76;99283.03;7846397;31;38010;-70
2022/03/29 08:01:10;;;;;;;23.05;13.40;;;;;;;17.27;29.63;99286.84;7846441;31;37912;-71
2022/03/29 08:05:27;;;;;;;25.92;11.80;;;;;;;17.50;28.25;99277.53;7845829;31;39267;-70
2022/03/29 08:09:43;;;;;;;20.88;12.35;;;;;;;17.96;28.48;99268.41;7845473;31;40695;-70
2022/03/29 08:13:59;;;;;;;23.62;12.70;;;;;;;17.90;27.01;99264.25;7844001;31;38655;-70
2022/03/29 08:18:16;;;;;;;21.77;11.65;;;;;;;18.05;26.54;99265.59;7845698;31;37093;-69
2022/03/29 08:22:33;;;;;;;23.08;12.43;;;;;;;18.20;25.53;99266.97;7846224;31;39163;-67
2022/03/29 08:26:51;;;;;;;19.65;12.15;;;;;;;18.13;25.45;99266.69;7845702;31;40587;-68
2022/03/29 08:31:07;;;;;;;22.48;12.23;;;;;;;18.19;25.44;99265.34;7846067;31;38125;-67
2022/03/29 08:35:24;;;;;;;28.15;11.75;;;;;;;18.29;26.20;99264.13;7845604;31;37339;-68
2022/03/29 08:39:40;;;;;;;25.42;11.52;;;;;;;18.77;25.37;99258.03;7844759;31;38853;-67
2022/03/29 08:43:56;;;;;;;28.83;12.18;;;;;;;18.61;25.05;99253.47;7844837;31;39715;-67
2022/03/29 08:48:12;;;;;;;37.78;13.57;;;;;;;18.61;26.04;99243.25;7846300;31;37726;-68
2022/03/29 08:52:28;;;;;;;20.17;11.32;;;;;;;19.19;25.06;99240.56;7846050;31;37165;-68
2022/03/29 08:56:45;;;;;;;31.98;12.27;;;;;;;19.81;24.61;99244.19;7846245;31;39273;-68
2022/03/29 09:01:00;;;;;;;23.00;11.48;;;;;;;20.19;24.64;99242.97;7846027;31;39972;-70
2022/03/29 09:05:27;;;;;;;22.10;11.45;;;;;;;19.87;23.48;99242.81;7846005;31;37844;-69
2022/03/29 09:09:44;;;;;;;22.42;10.75;;;;;;;19.74;23.81;99232.91;7845923;31;37098;-70
2022/03/29 09:14:04;;;;;;;23.08;11.20;;;;;;;20.38;23.75;99227.69;7845054;31;39086;-70
2022/03/29 09:18:21;;;;;;;19.83;11.10;;;;;;;20.57;23.04;99213.22;7844619;31;41310;-70
2022/03/29 09:22:46;;;;;;;25.55;11.63;;;;;;;20.26;22.41;99221.06;7846103;31;38145;-69
2022/03/29 09:27:08;;;;;;;21.15;11.88;;;;;;;20.36;22.94;99213.41;7848730;31;36865;-69
2022/03/29 09:31:27;;;;;;;25.45;11.75;;;;;;;20.06;23.28;99210.97;7827417;31;39053;-69
2022/03/29 09:35:56;;;;;;;24.30;11.68;;;;;;;20.39;23.59;99196.09;7821395;32;40900;-71
2022/03/29 09:40:13;;;;;;;24.23;12.05;;;;;;;21.12;22.67;99194.91;7821303;32;38001;-72
2022/03/29 09:44:41;;;;;;;23.92;11.52;;;;;;;21.23;22.45;99184.13;7821122;32;37157;-71
2022/03/29 09:49:01;;;;;;;25.37;12.40;;;;;;;21.11;22.44;99182.25;7830515;31;39952;-71
2022/03/29 09:53:53;;;;;;;24.15;11.93;;;;;;;21.33;22.25;99179.97;7848415;31;40219;-69
2022/03/29 09:58:14;;;;;;;23.90;11.85;;;;;;;20.32;22.58;99173.75;7848225;31;38704;-70
2022/03/29 10:02:40;;;;;;;20.67;11.45;;;;;;;21.47;21.37;99160.97;7848346;31;36927;-69
2022/03/29 10:07:03;;;;;;;23.38;12.32;;;;;;;21.51;22.02;99161.03;7847293;31;40143;-69
2022/03/29 10:11:19;;;;;;;24.23;11.88;;;;;;;22.07;20.92;99162.66;7848297;31;40061;-69
2022/03/29 10:15:37;;;;;;;18.27;11.25;;;;;;;22.60;20.61;99148.28;7847651;31;38012;-69
2022/03/29 10:19:54;;;;;;;25.55;12.57;;;;;;;22.82;19.96;99143.91;7847896;31;37016;-69
2022/03/29 10:24:16;;;;;;;24.25;13.73;;;;;;;22.31;19.27;99137.41;7846713;31;39314;-68
2022/03/29 10:28:32;;;;;;;24.95;12.70;;;;;;;21.62;20.00;99139.91;7848008;31;41175;-72
2022/03/29 10:32:48;;;;;;;24.58;11.82;;;;;;;22.19;19.08;99131.97;7847760;31;37690;-70
2022/03/29 10:37:07;;;;;;;25.00;12.43;;;;;;;22.19;19.02;99120.06;7846583;31;36824;-69
2022/03/29 10:41:26;;;;;;;23.45;12.55;;;;;;;22.05;18.92;99117.81;7847531;31;39616;-70
2022/03/29 10:45:43;;;;;;;31.60;12.55;;;;;;;22.43;18.87;99110.66;7847205;31;39717;-70
2022/03/29 10:50:00;;;;;;;23.00;12.50;;;;;;;22.75;19.06;99116.81;7847672;31;38528;-71
2022/03/29 10:54:42;;;;;;;22.83;12.52;;;;;;;22.82;18.08;99097.47;7846861;31;36498;-71
2022/03/29 10:59:01;;;;;;;24.35;12.70;;;;;;;22.93;17.71;99094.84;7845440;31;38915;-71
2022/03/29 11:03:20;;;;;;;22.15;12.63;;;;;;;22.76;18.08;99078.69;7847662;31;39888;-70
2022/03/29 11:07:50;;;;;;;24.45;13.35;;;;;;;22.49;18.07;99082.22;7847332;31;37687;-74
2022/03/29 11:12:37;;;;;;;26.85;13.70;;;;;;;23.01;17.79;99068.00;7847637;31;37977;-71
2022/03/29 11:17:13;;;;;;;30.90;14.83;;;;;;;23.28;17.75;99057.69;7847025;31;39155;-72
2022/03/29 11:21:39;;;;;;;27.77;13.07;;;;;;;22.60;17.57;99057.41;7836810;31;40790;-70
2022/03/29 11:25:55;;;;;;;23.60;13.05;;;;;;;23.40;17.96;99042.75;7847639;31;36831;-72
2022/03/29 11:30:13;;;;;;;25.25;14.15;;;;;;;23.39;17.71;99032.84;7847286;31;37666;-69
2022/03/29 11:34:37;;;;;;;29.20;14.50;;;;;;;23.38;17.62;99036.78;7845922;31;40072;-69
2022/03/29 11:38:53;;;;;;;23.17;13.45;;;;;;;22.95;18.30;99041.69;7847173;31;40767;-71
2022/03/29 11:43:12;;;;;;;29.00;13.88;;;;;;;23.34;17.40;99033.16;7846175;31;37994;-71
2022/03/29 11:47:28;;;;;;;22.37;12.50;;;;;;;23.33;17.10;99029.56;7847074;31;37281;-71
2022/03/29 11:52:00;;;;;;;25.33;11.57;;;;;;;23.43;16.89;99019.78;7846799;31;39294;-70
2022/03/29 11:56:20;;;;;;;23.97;11.63;;;;;;;22.82;16.55;99018.87;7847154;31;40700;-71
2022/03/29 12:00:35;;;;;;;22.30;10.77;;;;;;;23.49;15.85;98998.81;7846909;31;38038;-71
2022/03/29 12:04:52;;;;;;;24.67;11.02;;;;;;;23.35;15.89;98998.59;7846990;31;38095;-69
2022/03/29 12:09:08;;;;;;;21.75;11.90;;;;;;;22.63;17.46;98997.53;7846941;31;39845;-70
2022/03/29 12:13:24;;;;;;;18.80;10.73;;;;;;;22.58;17.52;98995.87;7846909;31;40786;-70
2022/03/29 12:22:32;;;;;;;20.55;11.40;;;;;;;22.95;16.97;98970.22;7816554;31;37729;-72
2022/03/29 12:26:51;;;;;;;20.27;11.20;;;;;;;22.86;16.88;98973.28;7817318;32;39135;-70
2022/03/29 12:31:15;;;;;;;19.50;10.02;;;;;;;22.83;16.67;98968.47;7817105;32;40900;-70
2022/03/29 12:35:33;;;;;;;16.62;9.45;;;;;;;22.43;16.58;98969.81;7818669;32;37815;-72
2022/03/29 12:39:56;;;;;;;23.02;10.23;;;;;;;23.02;16.80;98956.41;7818862;32;37024;-71
2022/03/29 12:44:16;;;;;;;21.58;10.05;;;;;;;22.88;16.19;98954.25;7818169;32;40144;-70
2022/03/29 12:48:32;;;;;;;20.10;9.30;;;;;;;22.95;16.89;98949.97;7818733;32;41212;-69
2022/03/29 12:52:52;;;;;;;18.83;9.57;;;;;;;23.02;16.33;98941.72;7816579;32;38084;-71
2022/03/29 12:57:10;;;;;;;15.82;9.23;;;;;;;23.80;15.39;98929.97;7817709;32;37848;-70
2022/03/29 13:01:30;;;;;;;17.35;8.27;;;;;;;23.14;15.90;98927.63;7818082;32;39033;-71
2022/03/29 13:05:48;;;;;;;15.75;8.50;;;;;;;23.12;15.59;98918.87;7818146;32;39877;-70
2022/03/29 13:10:10;;;;;;;14.30;7.68;;;;;;;22.87;16.25;98919.31;7816863;32;36948;-72
2022/03/29 13:14:40;;;;;;;17.62;8.50;;;;;;;22.42;16.71;98921.03;7817534;32;37635;-69
2022/03/29 13:18:56;;;;;;;14.95;7.75;;;;;;;22.54;16.39;98908.09;7817772;32;38876;-70
2022/03/29 13:23:13;;;;;;;14.80;7.78;;;;;;;22.69;15.92;98912.69;7816155;32;39595;-69
2022/03/29 13:27:28;;;;;;;16.30;8.13;;;;;;;22.18;15.01;98910.28;7816271;32;38117;-70
2022/03/29 13:31:46;;;;;;;17.62;8.45;;;;;;;23.01;14.86;98904.00;7817536;32;37731;-70
2022/03/29 13:36:10;;;;;;;14.93;7.78;;;;;;;22.64;15.68;98904.69;7816950;32;39095;-70
2022/03/29 13:40:26;;;;;;;17.33;8.88;;;;;;;23.48;15.21;98897.06;7817229;32;40126;-69
2022/03/29 13:44:44;;;;;;;17.37;8.88;;;;;;;23.32;14.74;98897.28;7817095;32;38514;-71
2022/03/29 13:49:00;;;;;;;40.55;10.55;;;;;;;23.19;15.29;98891.16;7817046;32;37070;-69
2022/03/29 13:53:20;;;;;;;19.80;9.40;;;;;;;23.37;15.78;98885.81;7816340;32;39810;-71
2022/03/29 13:57:36;;;;;;;16.70;8.73;;;;;;;22.72;16.26;98894.50;7816889;32;40591;-70
2022/03/29 14:01:52;;;;;;;16.55;8.98;;;;;;;22.37;16.87;98876.94;7816808;32;38374;-70
2022/03/29 14:06:08;;;;;;;49.00;11.98;;;;;;;23.07;17.17;98866.37;7815549;32;37105;-70
2022/03/29 14:10:25;;;;;;;17.35;8.27;;;;;;;22.75;17.36;98865.94;7816398;32;39248;-72
2022/03/29 14:14:42;;;;;;;19.77;9.95;;;;;;;22.45;17.99;98867.50;7818942;32;40070;-69
2022/03/29 14:18:58;;;;;;;24.40;10.23;;;;;;;22.19;18.22;98856.38;7819942;32;37898;-69
2022/03/29 14:23:14;;;;;;;18.73;9.98;;;;;;;22.35;17.75;98845.94;7820463;32;37872;-69
2022/03/29 14:27:30;;;;;;;18.70;9.57;;;;;;;21.68;18.73;98846.41;7819935;32;39397;-69
2022/03/29 14:31:46;;;;;;;21.40;10.50;;;;;;;21.76;18.85;98839.81;7820405;32;39790;-70
2022/03/29 14:36:03;;;;;;;20.75;10.10;;;;;;;21.65;18.50;98831.31;7819802;32;37991;-69
2022/03/29 14:40:20;;;;;;;22.90;9.75;;;;;;;22.73;17.32;98832.97;7819985;32;37165;-69
2022/03/29 14:44:36;;;;;;;17.33;9.13;;;;;;;23.12;16.53;98827.13;7820056;32;38916;-69
2022/03/29 14:48:52;;;;;;;25.67;9.90;;;;;;;22.84;16.91;98813.69;7819792;32;40558;-69
2022/03/29 14:53:08;;;;;;;20.10;9.85;;;;;;;23.67;16.26;98814.59;7818305;32;37936;-70
2022/03/29 14:57:24;;;;;;;22.33;9.63;;;;;;;23.72;15.96;98806.69;7819258;32;37058;-69
2022/03/29 15:01:40;;;;;;;18.75;9.73;;;;;;;24.41;15.14;98802.44;7818604;32;39105;-69
2022/03/29 15:05:57;;;;;;;20.17;9.02;;;;;;;23.33;15.98;98806.31;7819207;32;40251;-69
2022/03/29 15:10:14;;;;;;;16.20;8.82;;;;;;;23.36;16.54;98800.00;7819194;32;38688;-70
2022/03/29 15:14:31;;;;;;;19.50;8.70;;;;;;;22.59;17.07;98807.78;7818942;32;37048;-69
2022/03/29 15:18:47;;;;;;;17.52;7.55;;;;;;;22.00;16.77;98793.44;7819256;32;39299;-70
2022/03/29 15:23:03;;;;;;;17.50;8.30;;;;;;;22.04;17.18;98800.66;7819397;32;39978;-70
2022/03/29 15:27:21;;;;;;;17.90;8.38;;;;;;;22.18;17.43;98785.38;7819189;32;38003;-71
2022/03/29 15:31:37;;;;;;;15.07;8.02;;;;;;;22.16;17.30;98784.94;7819375;32;37231;-71
2022/03/29 15:35:53;;;;;;;15.48;7.90;;;;;;;21.46;18.08;98786.97;7819551;32;39324;-72
2022/03/29 15:40:10;;;;;;;19.65;7.22;;;;;;;21.15;18.57;98784.06;7819759;32;37812;-72
2022/03/29 15:44:27;;;;;;;19.20;7.40;;;;;;;21.43;19.17;98782.16;7819760;32;37524;-69
2022/03/29 15:48:44;;;;;;;13.82;7.07;;;;;;;21.56;18.88;98776.09;7818941;32;37097;-68
2022/03/29 15:53:06;;;;;;;13.35;7.47;;;;;;;21.41;18.85;98778.97;7818256;32;39261;-69
2022/03/29 15:57:24;;;;;;;14.87;6.90;;;;;;;21.59;18.21;98769.00;7818072;32;40727;-70
2022/03/29 16:01:40;;;;;;;16.67;6.93;;;;;;;21.51;18.51;98761.75;7818935;32;37825;-69
2022/03/29 16:05:56;;;;;;;12.75;6.90;;;;;;;21.61;18.83;98766.69;7819521;32;36688;-71
2022/03/29 16:10:12;;;;;;;14.13;6.72;;;;;;;21.44;18.85;98765.16;7818509;32;40062;-72
2022/03/29 16:14:29;;;;;;;17.15;8.77;;;;;;;21.29;19.10;98768.84;7819602;32;39604;-71
2022/03/29 16:18:45;;;;;;;29.58;15.10;;;;;;;21.03;19.34;98761.25;7818656;32;38753;-73
2022/03/29 16:23:01;;;;;;;27.83;14.73;;;;;;;21.06;19.18;98752.19;7819119;32;37193;-72
2022/03/29 16:27:17;;;;;;;22.65;9.15;;;;;;;21.15;19.19;98755.53;7818778;32;39918;-71
2022/03/29 16:31:38;;;;;;;13.07;7.22;;;;;;;21.17;18.82;98753.19;7817856;32;39508;-72
2022/03/29 16:35:54;;;;;;;21.67;7.35;;;;;;;21.27;18.74;98757.34;7819322;32;37519;-72
2022/03/29 16:40:10;;;;;;;16.98;7.72;;;;;;;21.31;18.75;98747.91;7818210;32;37706;-73
2022/03/29 16:44:26;;;;;;;15.63;8.20;;;;;;;21.29;19.03;98749.47;7819174;32;38880;-73
2022/03/29 16:48:42;;;;;;;21.98;9.68;;;;;;;21.15;19.10;98750.00;7813583;32;146715;-72
2022/03/29 16:52:58;;;;;;;25.58;7.43;;;;;;;21.00;19.74;98749.72;7818038;32;37770;-72
2022/03/29 16:57:15;;;;;;;14.43;6.55;;;;;;;21.09;20.14;98740.38;7818872;32;36942;-71
2022/03/29 17:01:31;;;;;;;26.23;7.12;;;;;;;20.78;20.41;98739.41;7817808;32;39264;-71
2022/03/29 17:05:51;;;;;;;15.77;6.28;;;;;;;20.55;20.27;98731.81;7818578;32;40802;-72
2022/03/29 17:10:08;;;;;;;31.60;6.55;;;;;;;20.48;19.91;98734.44;7816192;32;37991;-71
2022/03/29 17:14:24;;;;;;;27.00;6.80;;;;;;;20.43;20.52;98723.66;7818375;32;37254;-71
2022/03/29 17:18:40;;;;;;;10.43;4.97;;;;;;;20.33;20.77;98721.44;7816747;32;39325;-72
2022/03/29 17:23:03;;;;;;;12.88;5.25;;;;;;;20.16;20.75;98723.50;7817381;32;40898;-73
2022/03/29 17:27:21;;;;;;;9.60;4.45;;;;;;;20.11;20.42;98720.19;7818111;32;38007;-72
2022/03/29 17:31:37;;;;;;;13.15;5.75;;;;;;;20.15;20.41;98727.41;7816981;32;37114;-72
2022/03/29 17:35:53;;;;;;;15.77;6.50;;;;;;;19.89;20.40;98728.81;7817864;32;40140;-72
2022/03/29 17:40:10;;;;;;;19.60;6.37;;;;;;;19.99;20.04;98726.63;7815595;32;39867;-71
2022/03/29 17:44:27;;;;;;;12.48;6.60;;;;;;;19.87;20.40;98722.06;7819094;32;38006;-71
2022/03/29 17:48:43;;;;;;;14.45;6.28;;;;;;;19.78;20.42;98721.41;7820932;32;37359;-72
2022/03/29 17:52:59;;;;;;;12.55;5.60;;;;;;;19.80;20.50;98721.88;7820529;32;38616;-70
2022/03/29 17:57:15;;;;;;;14.32;6.00;;;;;;;19.83;20.74;98721.97;7819874;32;39918;-69
2022/03/29 18:01:32;;;;;;;11.63;6.05;;;;;;;19.64;21.22;98713.56;7821068;32;37903;-71
2022/03/29 18:05:51;;;;;;;14.68;6.53;;;;;;;19.64;21.30;98713.56;7821133;32;37053;-71
2022/03/29 18:10:09;;;;;;;12.00;6.12;;;;;;;19.42;21.58;98717.75;7820916;32;40128;-71
2022/03/29 18:14:25;;;;;;;11.12;5.72;;;;;;;19.36;21.59;98711.72;7831850;31;39920;-71
2022/03/29 18:18:41;;;;;;;18.62;6.10;;;;;;;19.31;21.51;98717.50;7847676;31;37825;-71
2022/03/29 18:22:57;;;;;;;15.88;5.68;;;;;;;19.26;21.79;98717.78;7848518;31;37045;-71
2022/03/29 18:27:13;;;;;;;13.30;5.30;;;;;;;19.20;21.83;98717.25;7848499;31;39319;-71
2022/03/29 18:31:30;;;;;;;12.82;5.60;;;;;;;19.04;22.05;98731.03;7848288;31;39936;-71
2022/03/29 18:35:47;;;;;;;11.98;5.32;;;;;;;19.04;22.10;98728.28;7848178;31;37911;-71
2022/03/29 18:40:04;;;;;;;15.40;6.60;;;;;;;19.02;22.07;98725.03;7848262;31;37760;-72
2022/03/29 18:44:22;;;;;;;13.73;5.53;;;;;;;18.92;22.25;98731.09;7847088;31;40005;-72
2022/03/29 18:48:39;;;;;;;11.80;5.78;;;;;;;18.65;22.76;98730.75;7847888;31;39948;-72
2022/03/29 18:52:57;;;;;;;17.87;7.40;;;;;;;18.60;22.79;98733.75;7847542;31;37854;-71
2022/03/29 18:57:13;;;;;;;15.02;6.00;;;;;;;18.69;23.26;98733.59;7846899;31;35983;-71
2022/03/29 19:01:29;;;;;;;12.98;6.00;;;;;;;18.52;23.87;98731.94;7848027;31;39291;-71
2022/03/29 19:05:45;;;;;;;10.73;5.75;;;;;;;18.41;24.24;98726.13;7847902;31;39906;-72
2022/03/29 19:10:02;;;;;;;11.57;4.93;;;;;;;18.39;23.64;98722.91;7847829;31;38048;-69
2022/03/29 19:14:18;;;;;;;10.73;4.95;;;;;;;18.27;24.06;98714.66;7847590;31;37345;-71
2022/03/29 19:18:34;;;;;;;18.50;6.07;;;;;;;18.20;23.78;98718.81;7847607;31;39191;-72
2022/03/29 19:22:51;;;;;;;16.23;6.07;;;;;;;18.12;23.04;98719.75;7847837;31;39687;-72
2022/03/29 19:27:09;;;;;;;11.15;5.47;;;;;;;18.15;23.08;98718.25;7847826;31;37888;-71
2022/03/29 19:31:26;;;;;;;11.98;6.07;;;;;;;18.11;23.66;98715.41;7847713;31;35897;-71
2022/03/29 19:35:46;;;;;;;12.32;5.78;;;;;;;18.06;24.16;98710.12;7847686;31;38919;-71
2022/03/29 19:40:04;;;;;;;10.75;5.72;;;;;;;18.07;24.36;98710.91;7847394;31;39632;-73
2022/03/29 19:44:21;;;;;;;14.95;6.15;;;;;;;18.01;24.61;98713.91;7847505;31;37786;-69
2022/03/29 19:48:37;;;;;;;12.43;5.65;;;;;;;18.04;24.05;98712.44;7847231;31;37670;-70
2022/03/29 19:52:53;;;;;;;13.70;5.78;;;;;;;18.06;24.25;98703.78;7846052;31;39176;-68
2022/03/29 19:57:10;;;;;;;11.95;5.70;;;;;;;17.87;24.59;98710.72;7846921;31;39909;-68
2022/03/29 20:01:26;;;;;;;10.77;5.72;;;;;;;17.73;24.83;98701.97;7847037;31;38625;-68
2022/03/29 20:05:42;;;;;;;15.90;5.68;;;;;;;17.83;24.64;98702.31;7826038;31;36998;-69